Time;durP1;ratioP1;P1;durP2;ratioP2;P2;SDS_P1;SDS_P2;PMS_P1;PMS_P2;Temp;Humidity;BMP_temperature;BMP_pressure;BME280_temperature;BME280_humidity;BME280_pressure;Samples;Min_cycle;Max_cycle;Signal;HPM_P1;HPM_P2
2020/12/28 00:01:39;;;;;;;;;;;;;;;27.25;28.85;100517.69;5097722;28;736;-37
2020/12/28 00:04:04;;;;;;;;;;;;;;;27.48;28.23;100514.81;5097602;28;1980;-37
2020/12/28 00:06:29;;;;;;;;;;;;;;;27.35;28.46;100507.41;5090050;28;942;-37
2020/12/28 00:08:55;;;;;;;;;;;;;;;27.00;29.15;100505.31;5097561;28;1126;-38
2020/12/28 00:11:20;;;;;;;;;;;;;;;27.69;28.19;100493.44;5097600;28;787;-38
2020/12/28 00:13:46;;;;;;;;;;;;;;;27.66;28.27;100499.22;5078852;28;767;-37
2020/12/28 00:16:12;;;;;;;;;;;;;;;27.49;28.94;100494.06;5097363;28;1231;-38
2020/12/28 00:18:37;;;;;;;;;;;;;;;26.88;29.69;100485.22;5079146;28;816;-36
2020/12/28 00:21:02;;;;;;;;;;;;;;;27.32;28.91;100497.00;5090036;28;1014;-36
2020/12/28 00:23:28;;;;;;;;;;;;;;;27.63;28.45;100493.16;5096996;28;1917;-42
2020/12/28 00:25:53;;;;;;;;;;;;;;;27.54;28.63;100494.31;5096407;28;816;-37
2020/12/28 00:28:18;;;;;;;;;;;;;;;27.41;29.03;100503.09;5097062;28;775;-37
2020/12/28 00:30:43;;;;;;;;;;;;;;;26.98;29.53;100499.25;5097196;28;744;-37
2020/12/28 00:33:09;;;;;;;;;;;;;;;27.62;28.56;100505.00;5097112;28;791;-38
2020/12/28 00:35:34;;;;;;;;;;;;;;;27.58;28.73;100498.28;5090166;28;990;-37
2020/12/28 00:37:59;;;;;;;;;;;;;;;27.48;29.06;100501.31;5096699;28;767;-36
2020/12/28 00:40:25;;;;;;;;;;;;;;;27.47;29.16;100512.31;5097128;28;843;-36
2020/12/28 00:42:50;;;;;;;;;;;;;;;27.83;28.39;100497.09;5096298;28;810;-42
2020/12/28 00:45:15;;;;;;;;;;;;;;;27.75;28.69;100490.81;5096984;28;1890;-36
2020/12/28 00:47:40;;;;;;;;;;;;;;;27.65;28.66;100492.13;5096981;28;751;-41
2020/12/28 00:50:06;;;;;;;;;;;;;;;27.52;28.67;100496.38;5095487;28;962;-37
2020/12/28 00:52:31;;;;;;;;;;;;;;;27.80;28.39;100497.47;5096817;28;771;-36
2020/12/28 00:54:56;;;;;;;;;;;;;;;27.87;28.37;100493.84;5096839;28;778;-42
2020/12/28 00:57:22;;;;;;;;;;;;;;;27.68;28.65;100494.44;5096391;28;778;-36
2020/12/28 00:59:47;;;;;;;;;;;;;;;27.49;28.94;100499.47;5097299;28;802;-37
2020/12/28 01:02:12;;;;;;;;;;;;;;;27.36;29.05;100502.84;5096860;28;850;-37
2020/12/28 01:04:37;;;;;;;;;;;;;;;27.89;28.29;100485.53;5078556;28;1963;-38
2020/12/28 01:07:03;;;;;;;;;;;;;;;27.74;28.36;100486.41;5095794;28;1005;-38
2020/12/28 01:09:28;;;;;;;;;;;;;;;27.60;28.83;100481.88;5096652;28;1115;-38
2020/12/28 01:11:55;;;;;;;;;;;;;;;27.55;28.75;100476.22;5096121;28;811;-38
2020/12/28 01:14:20;;;;;;;;;;;;;;;27.51;28.77;100479.31;5096322;28;819;-38
2020/12/28 01:16:45;;;;;;;;;;;;;;;27.90;28.58;100459.31;5096296;28;1111;-38
2020/12/28 01:19:11;;;;;;;;;;;;;;;27.94;28.41;100450.63;5096587;28;883;-37
2020/12/28 01:21:36;;;;;;;;;;;;;;;27.66;28.63;100450.56;5091516;28;1021;-43
2020/12/28 01:24:01;;;;;;;;;;;;;;;27.55;28.98;100441.94;5096293;28;1902;-38
2020/12/28 01:26:27;;;;;;;;;;;;;;;27.51;28.94;100430.69;5096384;28;743;-38
2020/12/28 01:28:52;;;;;;;;;;;;;;;27.83;28.56;100430.38;5096055;28;783;-38
2020/12/28 01:31:17;;;;;;;;;;;;;;;27.95;27.53;100414.44;5095940;28;806;-38
2020/12/28 01:33:43;;;;;;;;;;;;;;;27.59;28.59;100413.50;5096703;28;810;-41
2020/12/28 01:36:08;;;;;;;;;;;;;;;27.48;28.80;100411.31;5095585;28;942;-38
2020/12/28 01:38:33;;;;;;;;;;;;;;;27.75;28.36;100411.59;5096181;28;803;-38
2020/12/28 01:40:59;;;;;;;;;;;;;;;28.09;28.18;100401.84;5096280;28;795;-42
2020/12/28 01:43:27;;;;;;;;;;;;;;;27.83;28.55;100400.63;5095935;28;1897;-38
2020/12/28 01:45:52;;;;;;;;;;;;;;;27.60;28.88;100390.88;5096161;28;748;-38
2020/12/28 01:48:18;;;;;;;;;;;;;;;27.57;28.77;100387.72;5096337;28;846;-38
2020/12/28 01:50:43;;;;;;;;;;;;;;;27.75;28.83;100392.66;5088770;28;902;-42
2020/12/28 01:53:08;;;;;;;;;;;;;;;27.84;28.49;100394.19;5095869;28;820;-38
2020/12/28 01:55:33;;;;;;;;;;;;;;;27.69;28.56;100379.94;5096256;28;783;-38
2020/12/28 01:57:59;;;;;;;;;;;;;;;27.45;29.28;100390.09;5095636;28;807;-38
2020/12/28 02:00:24;;;;;;;;;;;;;;;26.73;30.61;100386.22;5095936;28;886;-39
2020/12/28 02:02:50;;;;;;;;;;;;;;;26.60;30.90;100383.38;5097930;28;751;-41
2020/12/28 02:05:15;;;;;;;;;;;;;;;27.59;28.96;100396.47;5095947;28;1909;-42
2020/12/28 02:07:40;;;;;;;;;;;;;;;27.57;28.92;100390.41;5096786;28;862;-38
2020/12/28 02:10:06;;;;;;;;;;;;;;;27.45;29.29;100384.69;5081820;28;1107;-42
2020/12/28 02:12:31;;;;;;;;;;;;;;;26.88;30.17;100391.59;5099538;28;866;-44
2020/12/28 02:14:57;;;;;;;;;;;;;;;27.27;29.63;100377.91;5099697;28;1353;-38
2020/12/28 02:17:23;;;;;;;;;;;;;;;27.57;28.94;100391.25;5099692;28;818;-38
2020/12/28 02:19:48;;;;;;;;;;;;;;;27.53;29.05;100389.16;5080871;28;856;-40
2020/12/28 02:22:14;;;;;;;;;;;;;;;27.49;29.41;100377.91;5092346;28;962;-42
2020/12/28 02:24:39;;;;;;;;;;;;;;;26.54;31.16;100384.97;5099537;28;1981;-42
2020/12/28 02:27:04;;;;;;;;;;;;;;;27.46;29.46;100383.69;5099003;28;1176;-43
2020/12/28 02:29:29;;;;;;;;;;;;;;;27.62;28.92;100380.72;5099604;28;863;-43
2020/12/28 02:31:55;;;;;;;;;;;;;;;27.57;29.18;100382.31;5099330;28;787;-38
2020/12/28 02:34:20;;;;;;;;;;;;;;;27.50;29.33;100383.09;5099029;28;835;-38
2020/12/28 02:36:45;;;;;;;;;;;;;;;27.14;29.99;100378.63;5098913;28;947;-38
2020/12/28 02:39:10;;;;;;;;;;;;;;;27.58;29.39;100386.69;5099591;28;877;-38
2020/12/28 02:41:36;;;;;;;;;;;;;;;27.61;29.14;100375.50;5098946;28;923;-37
2020/12/28 02:44:01;;;;;;;;;;;;;;;27.47;29.26;100366.44;5098922;28;1974;-41
2020/12/28 02:46:26;;;;;;;;;;;;;;;27.47;29.40;100366.44;5099109;28;751;-38
2020/12/28 02:48:52;;;;;;;;;;;;;;;26.34;31.47;100371.22;5098745;28;830;-40
2020/12/28 02:51:17;;;;;;;;;;;;;;;27.34;29.64;100365.28;5098779;28;946;-37
2020/12/28 02:53:42;;;;;;;;;;;;;;;27.50;29.26;100366.88;5099074;28;767;-38
2020/12/28 02:56:07;;;;;;;;;;;;;;;27.42;29.68;100366.19;5098819;28;818;-38
2020/12/28 02:58:33;;;;;;;;;;;;;;;26.73;30.88;100367.34;5099059;28;763;-36
2020/12/28 03:00:58;;;;;;;;;;;;;;;27.59;28.57;100359.47;5098720;28;821;-39
2020/12/28 03:03:23;;;;;;;;;;;;;;;27.67;28.53;100353.09;5098451;28;1970;-36
2020/12/28 03:05:48;;;;;;;;;;;;;;;27.62;28.67;100351.00;5098414;28;939;-36
2020/12/28 03:08:14;;;;;;;;;;;;;;;27.47;28.91;100356.47;5098692;28;822;-37
2020/12/28 03:10:39;;;;;;;;;;;;;;;26.98;29.95;100363.44;5098435;28;1084;-39
2020/12/28 03:13:04;;;;;;;;;;;;;;;27.37;29.45;100353.28;5097888;28;838;-38
2020/12/28 03:15:29;;;;;;;;;;;;;;;27.68;28.62;100345.81;5098716;28;1773;-36
2020/12/28 03:17:55;;;;;;;;;;;;;;;27.62;28.97;100342.88;5098678;28;842;-41
2020/12/28 03:20:20;;;;;;;;;;;;;;;27.51;29.29;100335.28;5093761;28;926;-37
2020/12/28 03:22:45;;;;;;;;;;;;;;;27.12;29.85;100329.38;5095930;28;874;-36
2020/12/28 03:25:11;;;;;;;;;;;;;;;27.45;29.26;100327.97;5099061;28;1909;-36
2020/12/28 03:27:36;;;;;;;;;;;;;;;27.67;28.74;100323.38;5097993;28;858;-36
2020/12/28 03:30:01;;;;;;;;;;;;;;;27.61;28.94;100324.16;5098412;28;897;-37
2020/12/28 03:32:26;;;;;;;;;;;;;;;27.51;29.02;100325.31;5098324;28;827;-36
2020/12/28 03:34:52;;;;;;;;;;;;;;;26.43;31.20;100326.09;5097559;28;978;-37
2020/12/28 03:37:17;;;;;;;;;;;;;;;26.45;31.18;100333.00;5097939;28;959;-36
2020/12/28 03:39:42;;;;;;;;;;;;;;;27.45;29.32;100345.03;5098186;28;818;-37
2020/12/28 03:42:07;;;;;;;;;;;;;;;27.48;29.10;100344.63;5097610;28;889;-36
2020/12/28 03:44:33;;;;;;;;;;;;;;;27.56;29.13;100356.34;5098075;28;1965;-36
2020/12/28 03:46:58;;;;;;;;;;;;;;;27.52;29.29;100347.78;5098236;28;851;-42
2020/12/28 03:49:23;;;;;;;;;;;;;;;27.84;28.57;100350.13;5097588;28;759;-37
2020/12/28 03:51:48;;;;;;;;;;;;;;;27.78;28.46;100334.72;5097670;28;978;-37
2020/12/28 03:54:14;;;;;;;;;;;;;;;27.59;29.17;100334.31;5097891;28;811;-37
2020/12/28 03:56:39;;;;;;;;;;;;;;;27.60;28.92;100347.63;5097827;28;767;-41
2020/12/28 03:59:04;;;;;;;;;;;;;;;27.09;30.20;100348.66;5097794;28;812;-39
2020/12/28 04:01:30;;;;;;;;;;;;;;;27.54;29.41;100353.84;5097629;28;806;-37
2020/12/28 04:03:55;;;;;;;;;;;;;;;27.73;28.80;100349.63;5097161;28;1963;-41
2020/12/28 04:06:20;;;;;;;;;;;;;;;27.65;29.10;100351.59;5097252;28;959;-37
2020/12/28 04:08:45;;;;;;;;;;;;;;;27.56;29.15;100356.34;5097049;28;839;-37
2020/12/28 04:11:11;;;;;;;;;;;;;;;26.41;31.43;100348.69;5097295;28;1186;-38
2020/12/28 04:13:36;;;;;;;;;;;;;;;27.52;28.46;100334.28;5097492;28;894;-39
2020/12/28 04:16:01;;;;;;;;;;;;;;;27.58;28.22;100324.53;5080245;28;1069;-36
2020/12/28 04:18:26;;;;;;;;;;;;;;;27.43;28.49;100328.16;5076852;28;783;-36
2020/12/28 04:20:52;;;;;;;;;;;;;;;27.39;28.59;100337.72;5078892;28;1014;-35
2020/12/28 04:23:17;;;;;;;;;;;;;;;27.90;27.82;100329.56;5097037;28;1909;-37
2020/12/28 04:25:42;;;;;;;;;;;;;;;27.71;27.95;100326.56;5096228;28;807;-36
2020/12/28 04:28:08;;;;;;;;;;;;;;;27.43;28.17;100316.53;5097052;28;854;-39
2020/12/28 04:30:33;;;;;;;;;;;;;;;26.41;30.42;100324.44;5097341;28;845;-40
2020/12/28 04:32:58;;;;;;;;;;;;;;;25.88;30.87;100313.75;5096669;28;743;-49
2020/12/28 04:35:24;;;;;;;;;;;;;;;25.35;30.76;100306.47;5096347;28;1025;-41
2020/12/28 04:37:49;;;;;;;;;;;;;;;24.58;32.17;100304.47;5097131;28;787;-48
2020/12/28 04:40:14;;;;;;;;;;;;;;;23.73;33.16;100311.16;5078737;28;844;-37
2020/12/28 04:42:40;;;;;;;;;;;;;;;23.82;33.25;100306.56;5096452;28;863;-46
2020/12/28 04:45:05;;;;;;;;;;;;;;;24.23;32.27;100291.38;5096883;28;1921;-38
2020/12/28 04:47:31;;;;;;;;;;;;;;;24.16;33.00;100284.97;5096533;28;767;-36
2020/12/28 04:49:56;;;;;;;;;;;;;;;24.04;33.08;100271.94;5096243;28;1041;-44
2020/12/28 04:52:21;;;;;;;;;;;;;;;24.18;32.35;100272.25;5078599;28;794;-46
2020/12/28 04:54:47;;;;;;;;;;;;;;;24.36;32.45;100277.38;5078285;28;1269;-36
2020/12/28 04:57:12;;;;;;;;;;;;;;;23.96;32.99;100271.97;5096713;28;807;-40
2020/12/28 04:59:38;;;;;;;;;;;;;;;24.64;32.28;100273.38;5095787;28;736;-33
2020/12/28 05:02:03;;;;;;;;;;;;;;;24.69;32.00;100287.94;5095813;28;846;-42
2020/12/28 05:04:28;;;;;;;;;;;;;;;25.65;30.38;100296.66;5096498;28;1901;-42
2020/12/28 05:06:57;;;;;;;;;;;;;;;25.82;30.41;100287.53;5096306;28;950;-44
2020/12/28 05:09:22;;;;;;;;;;;;;;;26.03;29.97;100293.03;5096207;28;1219;-42
2020/12/28 05:11:50;;;;;;;;;;;;;;;25.97;30.21;100307.25;5096814;28;802;-43
2020/12/28 05:14:16;;;;;;;;;;;;;;;26.32;29.94;100305.81;5096879;28;756;-42
2020/12/28 05:16:41;;;;;;;;;;;;;;;26.47;29.40;100319.31;5095646;28;1143;-42
2020/12/28 05:19:06;;;;;;;;;;;;;;;26.54;29.36;100312.16;5096118;28;879;-42
2020/12/28 05:21:32;;;;;;;;;;;;;;;26.68;29.11;100313.13;5091378;28;945;-40
2020/12/28 05:23:57;;;;;;;;;;;;;;;26.93;28.89;100317.28;5096358;28;1905;-40
2020/12/28 05:26:22;;;;;;;;;;;;;;;26.84;28.69;100312.03;5100255;28;826;-39
2020/12/28 05:28:49;;;;;;;;;;;;;;;26.71;29.11;100314.63;5116114;28;851;-41
2020/12/28 05:31:14;;;;;;;;;;;;;;;26.36;29.78;100326.03;5116208;28;787;-40
2020/12/28 05:33:40;;;;;;;;;;;;;;;26.92;28.67;100321.88;5098380;28;767;-41
2020/12/28 05:36:05;;;;;;;;;;;;;;;26.67;28.90;100326.78;5100305;28;1001;-41
2020/12/28 05:38:31;;;;;;;;;;;;;;;26.55;29.14;100319.19;5100326;28;796;-41
2020/12/28 05:41:05;;;;;;;;;;;;;;;26.73;29.32;100323.31;5082252;28;803;-40
2020/12/28 05:43:30;;;;;;;;;;;;;;;27.30;28.29;100325.34;5099948;28;1906;-41
2020/12/28 05:45:56;;;;;;;;;;;;;;;26.71;29.13;100331.63;5100141;28;732;-40
2020/12/28 05:48:24;;;;;;;;;;;;;;;26.96;29.12;100322.34;5100248;28;803;-46
2020/12/28 05:50:56;;;;;;;;;;;;;;;27.76;27.43;100324.06;5098959;28;859;-39
2020/12/28 05:53:22;;;;;;;;;;;;;;;28.12;27.02;100316.78;5099126;28;827;-40
2020/12/28 05:55:47;;;;;;;;;;;;;;;28.30;26.67;100318.97;5099757;28;767;-41
2020/12/28 05:58:12;;;;;;;;;;;;;;;28.40;26.91;100315.06;5082101;28;756;-42
2020/12/28 06:00:38;;;;;;;;;;;;;;;28.34;26.58;100316.72;5081271;28;817;-41
2020/12/28 06:03:07;;;;;;;;;;;;;;;28.41;26.68;100322.97;5081490;28;775;-46
2020/12/28 06:05:32;;;;;;;;;;;;;;;27.88;27.42;100316.25;5078138;28;991;-40
2020/12/28 06:07:57;;;;;;;;;;;;;;;27.58;28.15;100319.97;5099572;28;692;-45
2020/12/28 06:10:23;;;;;;;;;;;;;;;28.47;26.87;100335.72;5099510;28;1095;-42
2020/12/28 06:12:54;;;;;;;;;;;;;;;28.71;26.12;100328.06;5099733;28;807;-37
2020/12/28 06:15:20;;;;;;;;;;;;;;;28.90;25.99;100328.31;5077902;28;1100;-44
2020/12/28 06:17:45;;;;;;;;;;;;;;;28.93;25.91;100318.94;5096989;28;799;-45
2020/12/28 06:20:11;;;;;;;;;;;;;;;28.53;26.51;100315.09;5096698;28;1005;-44
2020/12/28 06:22:37;;;;;;;;;;;;;;;28.07;27.25;100325.53;5095824;28;790;-40
2020/12/28 06:25:17;;;;;;;;;;;;;;;27.90;27.54;100330.41;5098946;28;1981;-39
2020/12/28 06:27:43;;;;;;;;;;;;;;;28.72;26.33;100339.75;5099789;28;839;-41
2020/12/28 06:30:08;;;;;;;;;;;;;;;28.90;25.90;100349.97;5099258;28;848;-41
2020/12/28 06:32:34;;;;;;;;;;;;;;;28.92;26.21;100352.47;5099021;28;810;-46
2020/12/28 06:35:00;;;;;;;;;;;;;;;28.92;25.69;100347.91;5097984;28;935;-39
2020/12/28 06:37:25;;;;;;;;;;;;;;;28.24;26.87;100344.13;5094351;28;808;-40
2020/12/28 06:39:55;;;;;;;;;;;;;;;27.99;27.57;100336.50;5098691;28;803;-46
2020/12/28 06:42:20;;;;;;;;;;;;;;;28.80;26.29;100336.00;5098742;28;855;-43
2020/12/28 06:44:45;;;;;;;;;;;;;;;29.04;25.70;100347.34;5099430;28;1969;-38
2020/12/28 06:47:37;;;;;;;;;;;;;;;28.68;26.45;100343.88;5099088;28;760;-41
2020/12/28 06:50:02;;;;;;;;;;;;;;;28.14;27.30;100347.19;5095408;28;1599;-44
2020/12/28 06:52:28;;;;;;;;;;;;;;;28.53;26.76;100339.47;5099049;28;834;-45
2020/12/28 06:54:53;;;;;;;;;;;;;;;28.88;26.04;100335.81;5098546;28;748;-42
2020/12/28 06:57:18;;;;;;;;;;;;;;;29.15;25.56;100329.63;5098876;28;976;-41
2020/12/28 06:59:43;;;;;;;;;;;;;;;29.00;26.03;100335.22;5097723;28;1703;-44
2020/12/28 07:02:09;;;;;;;;;;;;;;;28.40;26.88;100334.00;5097057;28;1416;-41
2020/12/28 07:04:35;;;;;;;;;;;;;;;27.86;27.37;100327.25;5099039;28;1910;-41
2020/12/28 07:07:00;;;;;;;;;;;;;;;28.94;26.13;100335.00;5098027;28;1017;-41
2020/12/28 07:09:26;;;;;;;;;;;;;;;29.13;25.63;100324.41;5098342;28;1084;-41
2020/12/28 07:11:51;;;;;;;;;;;;;;;28.66;26.17;100325.13;5098254;28;834;-46
2020/12/28 07:14:17;;;;;;;;;;;;;;;28.28;26.90;100323.72;5099292;28;771;-41
2020/12/28 07:16:43;;;;;;;;;;;;;;;28.03;27.11;100329.63;5097972;28;1319;-41
2020/12/28 07:19:08;;;;;;;;;;;;;;;27.99;27.27;100329.19;5098437;28;755;-41
2020/12/28 07:21:33;;;;;;;;;;;;;;;28.03;27.33;100329.63;5091396;28;962;-43
2020/12/28 07:23:58;;;;;;;;;;;;;;;27.76;27.83;100326.78;5097964;28;1969;-42
2020/12/28 07:26:24;;;;;;;;;;;;;;;27.89;27.56;100330.59;5098524;28;783;-45
2020/12/28 07:28:49;;;;;;;;;;;;;;;27.74;27.57;100336.97;5097199;28;981;-44
2020/12/28 07:31:14;;;;;;;;;;;;;;;27.57;28.19;100333.69;5097709;28;759;-42
2020/12/28 07:33:46;;;;;;;;;;;;;;;27.29;28.65;100339.91;5097893;28;843;-40
2020/12/28 07:36:12;;;;;;;;;;;;;;;27.80;27.52;100349.69;5097850;28;1005;-44
2020/12/28 07:38:38;;;;;;;;;;;;;;;27.73;27.81;100354.19;5097803;28;748;-42
2020/12/28 07:41:03;;;;;;;;;;;;;;;27.74;27.99;100351.28;5098044;28;882;-41
2020/12/28 07:43:28;;;;;;;;;;;;;;;27.42;28.62;100348.13;5097938;28;1905;-42
2020/12/28 07:45:56;;;;;;;;;;;;;;;27.71;27.68;100337.38;5096393;28;736;-46
2020/12/28 07:48:21;;;;;;;;;;;;;;;27.70;27.80;100344.63;5098074;28;779;-46
2020/12/28 07:50:48;;;;;;;;;;;;;;;27.27;28.83;100340.09;5097257;28;1009;-42
2020/12/28 07:53:14;;;;;;;;;;;;;;;27.50;28.65;100333.63;5096546;28;826;-45
2020/12/28 07:55:42;;;;;;;;;;;;;;;27.72;27.95;100334.47;5096438;28;850;-44
2020/12/28 07:58:09;;;;;;;;;;;;;;;27.71;28.02;100331.97;5096155;28;850;-45
2020/12/28 08:00:36;;;;;;;;;;;;;;;27.29;28.98;100337.19;5096509;28;847;-43
2020/12/28 08:03:04;;;;;;;;;;;;;;;27.74;28.00;100339.66;5095871;28;1019;-41
2020/12/28 08:05:29;;;;;;;;;;;;;;;27.67;28.08;100325.22;5096777;28;1894;-40
2020/12/28 08:07:55;;;;;;;;;;;;;;;27.39;28.46;100333.13;5096052;28;1423;-40
2020/12/28 08:10:20;;;;;;;;;;;;;;;27.09;29.08;100343.25;5097599;28;1095;-40
2020/12/28 08:13:00;;;;;;;;;;;;;;;27.64;28.17;100348.09;5097387;28;764;-38
2020/12/28 08:15:30;;;;;;;;;;;;;;;27.74;28.31;100336.97;5097060;28;1312;-40
2020/12/28 08:18:05;;;;;;;;;;;;;;;27.73;28.05;100330.72;5097382;28;942;-41
2020/12/28 08:20:39;;;;;;;;;;;;;;;28.28;27.67;100334.53;5149403;27;1372;-37
2020/12/28 08:23:04;;;;;;;;;;;;;;;28.67;26.76;100329.53;5134702;27;762;-38
2020/12/28 08:25:30;;;;;;;;;;;;;;;28.42;26.92;100330.06;5135250;27;743;-34
2020/12/28 08:27:56;;;;;;;;;;;;;;;28.15;27.67;100337.19;5135144;27;837;-34
2020/12/28 08:30:21;;;;;;;;;;;;;;;28.27;27.60;100332.88;5134992;27;820;-38
2020/12/28 08:32:47;;;;;;;;;;;;;;;28.90;26.46;100327.47;5134788;27;743;-34
2020/12/28 08:35:13;;;;;;;;;;;;;;;28.75;26.26;100339.31;5134239;27;965;-38
2020/12/28 08:37:38;;;;;;;;;;;;;;;28.28;26.97;100331.84;5134466;27;758;-34
2020/12/28 08:40:12;;;;;;;;;;;;;;;27.97;27.69;100322.34;5133525;28;1913;-37
2020/12/28 08:42:37;;;;;;;;;;;;;;;28.57;26.80;100327.22;5134504;27;882;-38
2020/12/28 08:45:02;;;;;;;;;;;;;;;29.02;26.14;100325.03;5134255;27;739;-34
2020/12/28 08:47:28;;;;;;;;;;;;;;;28.38;26.94;100315.25;5134854;27;759;-37
2020/12/28 08:49:54;;;;;;;;;;;;;;;28.15;27.17;100308.28;5134536;27;961;-38
2020/12/28 08:52:19;;;;;;;;;;;;;;;28.48;27.08;100310.31;5134024;27;779;-34
2020/12/28 08:54:57;;;;;;;;;;;;;;;28.74;26.43;100305.19;5134643;27;805;-34
2020/12/28 08:57:26;;;;;;;;;;;;;;;28.75;26.62;100306.00;5134597;27;727;-38
2020/12/28 08:59:52;;;;;;;;;;;;;;;28.28;27.25;100304.78;5132774;28;1905;-36
2020/12/28 09:02:18;;;;;;;;;;;;;;;27.74;28.04;100299.13;5134699;27;874;-34
2020/12/28 09:04:43;;;;;;;;;;;;;;;28.82;26.63;100299.59;5134354;27;774;-36
2020/12/28 09:07:09;;;;;;;;;;;;;;;28.78;26.66;100301.00;5133286;27;941;-35
2020/12/28 09:09:34;;;;;;;;;;;;;;;28.40;27.38;100294.25;5140709;27;1079;-34
2020/12/28 09:11:59;;;;;;;;;;;;;;;28.23;27.74;100288.34;5154876;27;805;-35
2020/12/28 09:14:24;;;;;;;;;;;;;;;28.95;26.61;100287.94;5154525;27;778;-42
2020/12/28 09:16:50;;;;;;;;;;;;;;;28.91;26.60;100286.66;5154822;27;802;-43
2020/12/28 09:19:15;;;;;;;;;;;;;;;28.68;26.92;100287.88;5154206;27;1905;-42
2020/12/28 09:21:41;;;;;;;;;;;;;;;28.27;27.55;100280.66;5138074;27;1000;-38
2020/12/28 09:24:06;;;;;;;;;;;;;;;28.41;27.63;100297.81;5133809;27;858;-42
2020/12/28 09:26:34;;;;;;;;;;;;;;;29.06;26.33;100305.44;5133728;27;756;-41
2020/12/28 09:28:59;;;;;;;;;;;;;;;28.59;26.99;100306.16;5133505;27;763;-40
2020/12/28 09:31:24;;;;;;;;;;;;;;;28.10;27.53;100299.94;5140597;27;799;-42
2020/12/28 09:33:50;;;;;;;;;;;;;;;28.69;26.82;100308.50;5140498;27;820;-42
2020/12/28 09:36:19;;;;;;;;;;;;;;;29.04;26.24;100306.72;5127630;27;941;-41
2020/12/28 09:38:44;;;;;;;;;;;;;;;28.93;26.38;100291.88;5119945;28;1917;-39
2020/12/28 09:41:09;;;;;;;;;;;;;;;28.72;26.62;100286.44;5119768;28;810;-41
2020/12/28 09:43:34;;;;;;;;;;;;;;;28.63;26.97;100287.66;5119726;28;830;-41
2020/12/28 09:46:00;;;;;;;;;;;;;;;29.23;26.17;100279.84;5119865;28;775;-41
2020/12/28 09:48:25;;;;;;;;;;;;;;;28.77;26.54;100277.72;5119893;27;846;-42
2020/12/28 09:50:50;;;;;;;;;;;;;;;28.59;27.00;100281.81;5119880;27;811;-40
2020/12/28 09:53:16;;;;;;;;;;;;;;;29.01;26.46;100280.06;5119675;28;799;-41
2020/12/28 09:55:41;;;;;;;;;;;;;;;28.62;26.79;100280.59;5130351;27;846;-42
2020/12/28 09:58:06;;;;;;;;;;;;;;;28.21;27.47;100272.31;5140338;27;778;-42
2020/12/28 10:00:31;;;;;;;;;;;;;;;28.37;27.54;100264.91;5139801;27;1898;-42
2020/12/28 10:02:57;;;;;;;;;;;;;;;28.79;26.89;100264.81;5139737;27;1585;-41
2020/12/28 10:05:22;;;;;;;;;;;;;;;28.16;27.24;100261.25;5134958;27;984;-41
2020/12/28 10:07:47;;;;;;;;;;;;;;;27.70;28.21;100258.16;5119479;27;825;-42
2020/12/28 10:10:13;;;;;;;;;;;;;;;27.96;27.94;100247.69;5131482;27;1142;-39
2020/12/28 10:12:38;;;;;;;;;;;;;;;28.35;27.28;100254.31;5139661;27;822;-39
2020/12/28 10:15:04;;;;;;;;;;;;;;;28.90;26.20;100240.84;5139450;27;778;-40
2020/12/28 10:17:30;;;;;;;;;;;;;;;28.55;26.99;100250.81;5139551;27;822;-38
2020/12/28 10:19:55;;;;;;;;;;;;;;;28.15;27.35;100243.38;5138206;27;1980;-39
2020/12/28 10:22:20;;;;;;;;;;;;;;;28.71;26.82;100236.03;5118886;28;759;-39
2020/12/28 10:24:46;;;;;;;;;;;;;;;28.73;26.43;100233.13;5119262;28;1009;-40
2020/12/28 10:27:12;;;;;;;;;;;;;;;28.53;26.85;100233.13;5118789;28;818;-38
2020/12/28 10:29:37;;;;;;;;;;;;;;;28.00;27.99;100219.19;5119066;28;901;-40
2020/12/28 10:32:02;;;;;;;;;;;;;;;28.96;26.56;100218.38;5118717;28;759;-41
2020/12/28 10:34:27;;;;;;;;;;;;;;;28.76;26.42;100218.38;5119214;28;826;-40
2020/12/28 10:36:53;;;;;;;;;;;;;;;28.69;26.57;100221.06;5117688;27;1020;-38
2020/12/28 10:39:18;;;;;;;;;;;;;;;28.55;26.99;100214.78;5118559;28;1893;-41
2020/12/28 10:41:43;;;;;;;;;;;;;;;28.90;26.37;100211.91;5118048;28;798;-39
2020/12/28 10:44:09;;;;;;;;;;;;;;;28.41;27.16;100209.34;5117890;28;1051;-40
2020/12/28 10:46:36;;;;;;;;;;;;;;;27.84;28.08;100204.16;5118610;28;767;-42
2020/12/28 10:49:01;;;;;;;;;;;;;;;28.92;26.49;100207.13;5118390;28;833;-40
2020/12/28 10:51:27;;;;;;;;;;;;;;;28.47;26.81;100205.84;5117485;27;941;-40
2020/12/28 10:53:52;;;;;;;;;;;;;;;28.14;27.31;100201.16;5118656;28;774;-40
2020/12/28 10:56:21;;;;;;;;;;;;;;;28.39;27.22;100210.63;5118309;28;846;-41
2020/12/28 10:58:46;;;;;;;;;;;;;;;28.80;26.39;100206.06;5117927;28;1965;-42
2020/12/28 11:01:11;;;;;;;;;;;;;;;28.41;27.05;100211.25;5118293;28;767;-42
2020/12/28 11:03:37;;;;;;;;;;;;;;;28.31;27.58;100209.72;5118022;28;850;-42
2020/12/28 11:06:02;;;;;;;;;;;;;;;28.82;26.74;100201.28;5117213;27;949;-41
2020/12/28 11:08:27;;;;;;;;;;;;;;;28.54;26.94;100195.03;5118350;28;806;-40
2020/12/28 11:10:53;;;;;;;;;;;;;;;28.50;27.26;100184.81;5135684;27;1075;-40
2020/12/28 11:13:18;;;;;;;;;;;;;;;28.68;27.21;100187.75;5138390;27;763;-39
2020/12/28 11:15:44;;;;;;;;;;;;;;;28.50;26.95;100190.22;5138820;27;818;-42
2020/12/28 11:18:09;;;;;;;;;;;;;;;28.04;27.77;100190.75;5138196;27;799;-41
2020/12/28 11:20:34;;;;;;;;;;;;;;;28.21;27.73;100193.06;5137422;27;1984;-41
2020/12/28 11:22:59;;;;;;;;;;;;;;;28.70;26.91;100204.63;5138475;27;819;-42
2020/12/28 11:25:25;;;;;;;;;;;;;;;28.55;27.06;100209.38;5138083;27;771;-41
2020/12/28 11:27:50;;;;;;;;;;;;;;;28.01;27.59;100209.22;5137977;27;767;-41
2020/12/28 11:30:15;;;;;;;;;;;;;;;27.81;28.14;100204.56;5138348;27;810;-41
2020/12/28 11:32:41;;;;;;;;;;;;;;;28.38;27.36;100211.66;5137327;27;831;-41
2020/12/28 11:35:06;;;;;;;;;;;;;;;28.26;27.38;100193.28;5135295;27;936;-39
2020/12/28 11:37:32;;;;;;;;;;;;;;;27.82;28.03;100201.66;5117771;28;791;-40
2020/12/28 11:39:57;;;;;;;;;;;;;;;27.94;28.00;100203.78;5117939;28;1968;-40
2020/12/28 11:42:23;;;;;;;;;;;;;;;28.72;26.82;100201.69;5117630;28;807;-41
2020/12/28 11:44:48;;;;;;;;;;;;;;;28.56;26.90;100190.22;5117151;28;803;-39
2020/12/28 11:47:13;;;;;;;;;;;;;;;28.38;27.15;100193.53;5117893;28;795;-40
2020/12/28 11:49:38;;;;;;;;;;;;;;;27.87;28.20;100191.09;5117348;28;834;-41
2020/12/28 11:52:04;;;;;;;;;;;;;;;28.80;26.75;100190.66;5116772;27;1040;-40
2020/12/28 11:54:29;;;;;;;;;;;;;;;28.93;26.27;100181.72;5117356;28;807;-40
2020/12/28 11:56:54;;;;;;;;;;;;;;;28.57;27.13;100178.38;5117150;28;877;-39
2020/12/28 11:59:20;;;;;;;;;;;;;;;28.16;27.58;100182.03;5117180;28;1902;-42
2020/12/28 12:01:45;;;;;;;;;;;;;;;28.74;26.61;100183.38;5117457;28;838;-41
2020/12/28 12:04:11;;;;;;;;;;;;;;;28.77;26.59;100187.53;5117131;28;790;-40
2020/12/28 12:06:36;;;;;;;;;;;;;;;28.43;27.02;100193.75;5116989;27;1061;-38
2020/12/28 12:09:14;;;;;;;;;;;;;;;27.94;28.12;100198.38;5119145;27;1137;-40
2020/12/28 12:11:42;;;;;;;;;;;;;;;28.75;26.76;100203.16;5137508;27;791;-41
2020/12/28 12:14:08;;;;;;;;;;;;;;;28.74;26.83;100194.22;5137434;27;813;-40
2020/12/28 12:16:33;;;;;;;;;;;;;;;28.44;27.26;100195.44;5137850;27;790;-41
2020/12/28 12:18:58;;;;;;;;;;;;;;;28.30;27.63;100194.53;5136929;27;1910;-42
2020/12/28 12:21:24;;;;;;;;;;;;;;;28.63;26.85;100195.66;5123853;27;976;-41
2020/12/28 12:23:49;;;;;;;;;;;;;;;29.00;26.35;100199.84;5117262;28;822;-41
2020/12/28 12:26:17;;;;;;;;;;;;;;;28.54;26.96;100194.19;5116767;28;747;-41
2020/12/28 12:28:42;;;;;;;;;;;;;;;28.33;27.18;100193.31;5117138;28;818;-42
2020/12/28 12:31:07;;;;;;;;;;;;;;;28.76;26.84;100189.41;5117063;28;894;-42
2020/12/28 12:33:32;;;;;;;;;;;;;;;29.19;26.12;100182.78;5116815;28;807;-39
2020/12/28 12:35:58;;;;;;;;;;;;;;;28.83;26.67;100182.13;5116652;27;1008;-41
2020/12/28 12:38:23;;;;;;;;;;;;;;;28.65;26.88;100165.69;5117100;28;1962;-41
2020/12/28 12:40:48;;;;;;;;;;;;;;;28.51;27.50;100173.78;5116340;28;838;-42
2020/12/28 12:43:13;;;;;;;;;;;;;;;29.12;26.21;100175.69;5117079;28;798;-40
2020/12/28 12:45:39;;;;;;;;;;;;;;;28.73;26.72;100179.00;5117037;28;842;-41
2020/12/28 12:48:04;;;;;;;;;;;;;;;28.29;27.66;100176.66;5116481;28;945;-40